sensor_id;sensor_type;location;lat;lon;timestamp;P1;durP1;ratioP1;P2;durP2;ratioP2
57531;SDS011;43359;51.296;16.904;2022-08-19T00:01:13;104.00;;;99.60;;
57531;SDS011;43359;51.296;16.904;2022-08-19T00:03:39;118.13;;;113.35;;
57531;SDS011;43359;51.296;16.904;2022-08-19T00:06:05;104.80;;;100.45;;
57531;SDS011;43359;51.296;16.904;2022-08-19T00:08:31;114.28;;;109.75;;
57531;SDS011;43359;51.296;16.904;2022-08-19T00:10:57;107.72;;;103.32;;
57531;SDS011;43359;51.296;16.904;2022-08-19T00:13:23;108.38;;;103.93;;
57531;SDS011;43359;51.296;16.904;2022-08-19T00:15:49;152.02;;;145.63;;
57531;SDS011;43359;51.296;16.904;2022-08-19T00:18:16;107.38;;;102.97;;
57531;SDS011;43359;51.296;16.904;2022-08-19T00:20:42;118.50;;;113.35;;
57531;SDS011;43359;51.296;16.904;2022-08-19T00:23:09;107.15;;;102.78;;
57531;SDS011;43359;51.296;16.904;2022-08-19T00:25:35;109.28;;;104.88;;
57531;SDS011;43359;51.296;16.904;2022-08-19T00:28:01;122.43;;;117.57;;
57531;SDS011;43359;51.296;16.904;2022-08-19T00:30:27;103.53;;;99.28;;
57531;SDS011;43359;51.296;16.904;2022-08-19T00:32:54;225.05;;;216.77;;
57531;SDS011;43359;51.296;16.904;2022-08-19T00:35:20;122.80;;;117.90;;
57531;SDS011;43359;51.296;16.904;2022-08-19T00:37:47;100.72;;;96.47;;
57531;SDS011;43359;51.296;16.904;2022-08-19T00:40:14;105.13;;;100.78;;
57531;SDS011;43359;51.296;16.904;2022-08-19T00:42:40;102.18;;;98.15;;
57531;SDS011;43359;51.296;16.904;2022-08-19T00:45:14;102.45;;;98.35;;
57531;SDS011;43359;51.296;16.904;2022-08-19T00:47:41;96.68;;;92.72;;
57531;SDS011;43359;51.296;16.904;2022-08-19T00:50:08;98.05;;;93.63;;
57531;SDS011;43359;51.296;16.904;2022-08-19T00:52:36;98.13;;;94.13;;
57531;SDS011;43359;51.296;16.904;2022-08-19T00:55:03;98.47;;;94.53;;
57531;SDS011;43359;51.296;16.904;2022-08-19T00:57:35;107.40;;;102.57;;
57531;SDS011;43359;51.296;16.904;2022-08-19T01:00:04;95.90;;;92.00;;
57531;SDS011;43359;51.296;16.904;2022-08-19T01:02:31;107.45;;;102.95;;
57531;SDS011;43359;51.296;16.904;2022-08-19T01:04:59;97.63;;;93.70;;
57531;SDS011;43359;51.296;16.904;2022-08-19T01:07:25;97.55;;;93.45;;
57531;SDS011;43359;51.296;16.904;2022-08-19T01:09:51;104.38;;;100.10;;
57531;SDS011;43359;51.296;16.904;2022-08-19T01:12:18;100.53;;;96.22;;
57531;SDS011;43359;51.296;16.904;2022-08-19T01:14:44;117.32;;;112.00;;
57531;SDS011;43359;51.296;16.904;2022-08-19T01:17:11;103.32;;;99.03;;
57531;SDS011;43359;51.296;16.904;2022-08-19T01:19:37;103.95;;;99.65;;
57531;SDS011;43359;51.296;16.904;2022-08-19T01:24:40;134.63;;;128.35;;
57531;SDS011;43359;51.296;16.904;2022-08-19T01:27:06;109.25;;;104.57;;
57531;SDS011;43359;51.296;16.904;2022-08-19T01:29:33;104.88;;;100.65;;
57531;SDS011;43359;51.296;16.904;2022-08-19T01:32:00;113.10;;;108.28;;
57531;SDS011;43359;51.296;16.904;2022-08-19T01:34:26;121.53;;;116.63;;
57531;SDS011;43359;51.296;16.904;2022-08-19T01:36:52;125.90;;;120.90;;
57531;SDS011;43359;51.296;16.904;2022-08-19T01:39:20;127.47;;;122.25;;
57531;SDS011;43359;51.296;16.904;2022-08-19T01:41:47;143.65;;;137.98;;
57531;SDS011;43359;51.296;16.904;2022-08-19T01:44:13;140.23;;;134.93;;
57531;SDS011;43359;51.296;16.904;2022-08-19T01:46:41;138.73;;;133.32;;
57531;SDS011;43359;51.296;16.904;2022-08-19T01:49:07;140.27;;;134.60;;
57531;SDS011;43359;51.296;16.904;2022-08-19T01:51:33;160.43;;;154.32;;
57531;SDS011;43359;51.296;16.904;2022-08-19T01:54:00;133.85;;;128.68;;
57531;SDS011;43359;51.296;16.904;2022-08-19T01:56:26;149.00;;;143.40;;
57531;SDS011;43359;51.296;16.904;2022-08-19T01:59:02;143.43;;;137.82;;
57531;SDS011;43359;51.296;16.904;2022-08-19T02:01:28;207.70;;;199.05;;
57531;SDS011;43359;51.296;16.904;2022-08-19T02:03:58;147.32;;;141.75;;
57531;SDS011;43359;51.296;16.904;2022-08-19T02:06:25;145.20;;;139.63;;
57531;SDS011;43359;51.296;16.904;2022-08-19T02:08:52;139.60;;;134.38;;
57531;SDS011;43359;51.296;16.904;2022-08-19T02:11:29;134.45;;;129.25;;
57531;SDS011;43359;51.296;16.904;2022-08-19T02:13:56;149.52;;;143.98;;
57531;SDS011;43359;51.296;16.904;2022-08-19T02:16:23;135.43;;;130.02;;
57531;SDS011;43359;51.296;16.904;2022-08-19T02:18:49;134.10;;;128.80;;
57531;SDS011;43359;51.296;16.904;2022-08-19T02:21:19;123.95;;;118.93;;
57531;SDS011;43359;51.296;16.904;2022-08-19T02:23:45;141.43;;;135.93;;
57531;SDS011;43359;51.296;16.904;2022-08-19T02:26:11;153.30;;;147.20;;
57531;SDS011;43359;51.296;16.904;2022-08-19T02:28:38;149.55;;;144.00;;
57531;SDS011;43359;51.296;16.904;2022-08-19T02:31:08;163.23;;;157.05;;
57531;SDS011;43359;51.296;16.904;2022-08-19T02:33:35;170.40;;;163.95;;
57531;SDS011;43359;51.296;16.904;2022-08-19T02:36:03;157.75;;;151.85;;
57531;SDS011;43359;51.296;16.904;2022-08-19T02:38:29;154.68;;;148.80;;
57531;SDS011;43359;51.296;16.904;2022-08-19T02:40:59;161.95;;;155.88;;
57531;SDS011;43359;51.296;16.904;2022-08-19T02:43:27;169.23;;;162.82;;
57531;SDS011;43359;51.296;16.904;2022-08-19T02:45:54;157.38;;;151.27;;
57531;SDS011;43359;51.296;16.904;2022-08-19T02:48:21;168.48;;;162.05;;
57531;SDS011;43359;51.296;16.904;2022-08-19T02:50:49;161.07;;;154.93;;
57531;SDS011;43359;51.296;16.904;2022-08-19T02:53:22;174.63;;;167.88;;
57531;SDS011;43359;51.296;16.904;2022-08-19T02:55:49;172.85;;;166.45;;
57531;SDS011;43359;51.296;16.904;2022-08-19T02:58:15;164.95;;;158.68;;
57531;SDS011;43359;51.296;16.904;2022-08-19T03:00:42;164.05;;;157.80;;
57531;SDS011;43359;51.296;16.904;2022-08-19T03:03:09;170.68;;;164.38;;
57531;SDS011;43359;51.296;16.904;2022-08-19T03:05:35;181.52;;;174.70;;
57531;SDS011;43359;51.296;16.904;2022-08-19T03:08:01;179.90;;;173.18;;
57531;SDS011;43359;51.296;16.904;2022-08-19T03:10:29;212.98;;;205.32;;
57531;SDS011;43359;51.296;16.904;2022-08-19T03:12:55;218.73;;;210.93;;
57531;SDS011;43359;51.296;16.904;2022-08-19T03:15:21;193.52;;;186.48;;
57531;SDS011;43359;51.296;16.904;2022-08-19T03:17:47;194.95;;;187.88;;
57531;SDS011;43359;51.296;16.904;2022-08-19T03:20:13;197.00;;;189.75;;
57531;SDS011;43359;51.296;16.904;2022-08-19T03:22:39;189.55;;;182.38;;
57531;SDS011;43359;51.296;16.904;2022-08-19T03:25:05;187.73;;;180.25;;
57531;SDS011;43359;51.296;16.904;2022-08-19T03:27:31;196.60;;;189.30;;
57531;SDS011;43359;51.296;16.904;2022-08-19T03:29:57;198.63;;;191.20;;
57531;SDS011;43359;51.296;16.904;2022-08-19T03:32:24;205.95;;;198.23;;
57531;SDS011;43359;51.296;16.904;2022-08-19T03:34:50;216.07;;;208.02;;
57531;SDS011;43359;51.296;16.904;2022-08-19T03:37:17;201.00;;;193.68;;
57531;SDS011;43359;51.296;16.904;2022-08-19T03:39:43;210.35;;;202.85;;
57531;SDS011;43359;51.296;16.904;2022-08-19T03:42:10;206.43;;;198.82;;
57531;SDS011;43359;51.296;16.904;2022-08-19T03:44:36;197.38;;;190.25;;
57531;SDS011;43359;51.296;16.904;2022-08-19T03:47:03;205.32;;;197.60;;
57531;SDS011;43359;51.296;16.904;2022-08-19T03:49:30;206.57;;;199.07;;
57531;SDS011;43359;51.296;16.904;2022-08-19T03:51:58;210.57;;;202.95;;
57531;SDS011;43359;51.296;16.904;2022-08-19T03:54:27;218.65;;;210.63;;
57531;SDS011;43359;51.296;16.904;2022-08-19T03:56:54;231.00;;;222.40;;
57531;SDS011;43359;51.296;16.904;2022-08-19T03:59:22;204.07;;;196.48;;
57531;SDS011;43359;51.296;16.904;2022-08-19T04:01:50;221.48;;;213.43;;
57531;SDS011;43359;51.296;16.904;2022-08-19T04:04:16;227.65;;;219.25;;
57531;SDS011;43359;51.296;16.904;2022-08-19T04:06:42;219.57;;;211.68;;
57531;SDS011;43359;51.296;16.904;2022-08-19T04:09:10;199.57;;;191.88;;
57531;SDS011;43359;51.296;16.904;2022-08-19T04:11:37;204.35;;;196.85;;
57531;SDS011;43359;51.296;16.904;2022-08-19T04:14:07;218.52;;;210.73;;
57531;SDS011;43359;51.296;16.904;2022-08-19T04:16:33;254.73;;;245.25;;
57531;SDS011;43359;51.296;16.904;2022-08-19T04:19:00;216.77;;;209.05;;
57531;SDS011;43359;51.296;16.904;2022-08-19T04:21:27;228.40;;;220.35;;
57531;SDS011;43359;51.296;16.904;2022-08-19T04:23:54;221.10;;;213.23;;
57531;SDS011;43359;51.296;16.904;2022-08-19T04:26:21;221.48;;;213.40;;
57531;SDS011;43359;51.296;16.904;2022-08-19T04:28:48;202.75;;;195.35;;
57531;SDS011;43359;51.296;16.904;2022-08-19T04:31:17;202.82;;;195.32;;
57531;SDS011;43359;51.296;16.904;2022-08-19T04:33:44;193.50;;;186.40;;
57531;SDS011;43359;51.296;16.904;2022-08-19T04:36:21;173.25;;;166.70;;
57531;SDS011;43359;51.296;16.904;2022-08-19T04:38:47;182.23;;;175.63;;
57531;SDS011;43359;51.296;16.904;2022-08-19T04:41:14;160.90;;;154.43;;
57531;SDS011;43359;51.296;16.904;2022-08-19T04:43:59;159.68;;;153.43;;
57531;SDS011;43359;51.296;16.904;2022-08-19T04:46:25;155.52;;;149.27;;
57531;SDS011;43359;51.296;16.904;2022-08-19T04:48:51;140.77;;;135.07;;
57531;SDS011;43359;51.296;16.904;2022-08-19T04:51:18;151.00;;;144.90;;
57531;SDS011;43359;51.296;16.904;2022-08-19T04:53:45;136.35;;;130.90;;
57531;SDS011;43359;51.296;16.904;2022-08-19T04:56:13;138.48;;;133.02;;
57531;SDS011;43359;51.296;16.904;2022-08-19T04:58:39;135.45;;;130.05;;
57531;SDS011;43359;51.296;16.904;2022-08-19T05:01:13;146.73;;;140.75;;
57531;SDS011;43359;51.296;16.904;2022-08-19T05:03:39;164.25;;;157.60;;
57531;SDS011;43359;51.296;16.904;2022-08-19T05:06:06;149.80;;;143.77;;
57531;SDS011;43359;51.296;16.904;2022-08-19T05:08:33;146.05;;;140.05;;
57531;SDS011;43359;51.296;16.904;2022-08-19T05:11:00;154.32;;;147.93;;
57531;SDS011;43359;51.296;16.904;2022-08-19T05:13:26;165.50;;;158.93;;
57531;SDS011;43359;51.296;16.904;2022-08-19T05:15:54;160.80;;;154.38;;
57531;SDS011;43359;51.296;16.904;2022-08-19T05:18:20;149.90;;;143.98;;
57531;SDS011;43359;51.296;16.904;2022-08-19T05:21:09;151.07;;;145.13;;
57531;SDS011;43359;51.296;16.904;2022-08-19T05:23:54;153.30;;;147.23;;
57531;SDS011;43359;51.296;16.904;2022-08-19T05:26:20;155.25;;;149.20;;
57531;SDS011;43359;51.296;16.904;2022-08-19T05:28:46;148.88;;;142.73;;
57531;SDS011;43359;51.296;16.904;2022-08-19T05:31:12;157.50;;;151.10;;
57531;SDS011;43359;51.296;16.904;2022-08-19T05:33:39;156.35;;;150.02;;
57531;SDS011;43359;51.296;16.904;2022-08-19T05:36:05;191.98;;;184.23;;
57531;SDS011;43359;51.296;16.904;2022-08-19T05:38:32;158.20;;;151.85;;
57531;SDS011;43359;51.296;16.904;2022-08-19T05:40:59;161.43;;;155.15;;
57531;SDS011;43359;51.296;16.904;2022-08-19T05:43:25;148.13;;;142.07;;
57531;SDS011;43359;51.296;16.904;2022-08-19T05:45:51;153.82;;;147.77;;
57531;SDS011;43359;51.296;16.904;2022-08-19T05:48:17;144.85;;;138.73;;
57531;SDS011;43359;51.296;16.904;2022-08-19T05:50:45;136.75;;;131.15;;
57531;SDS011;43359;51.296;16.904;2022-08-19T05:53:15;141.00;;;135.27;;
57531;SDS011;43359;51.296;16.904;2022-08-19T05:55:41;137.50;;;131.85;;
57531;SDS011;43359;51.296;16.904;2022-08-19T05:58:07;146.93;;;141.00;;
57531;SDS011;43359;51.296;16.904;2022-08-19T06:00:34;139.20;;;133.18;;
57531;SDS011;43359;51.296;16.904;2022-08-19T06:03:00;137.35;;;131.82;;
57531;SDS011;43359;51.296;16.904;2022-08-19T06:05:30;126.72;;;121.15;;
57531;SDS011;43359;51.296;16.904;2022-08-19T06:07:57;127.97;;;122.70;;
57531;SDS011;43359;51.296;16.904;2022-08-19T06:10:23;124.53;;;119.22;;
57531;SDS011;43359;51.296;16.904;2022-08-19T06:12:51;119.28;;;114.38;;
57531;SDS011;43359;51.296;16.904;2022-08-19T06:15:17;119.07;;;113.80;;
57531;SDS011;43359;51.296;16.904;2022-08-19T06:17:43;111.90;;;107.05;;
57531;SDS011;43359;51.296;16.904;2022-08-19T06:20:11;108.40;;;103.70;;
57531;SDS011;43359;51.296;16.904;2022-08-19T06:22:43;106.05;;;101.15;;
57531;SDS011;43359;51.296;16.904;2022-08-19T06:25:09;99.97;;;95.53;;
57531;SDS011;43359;51.296;16.904;2022-08-19T06:27:36;102.82;;;97.80;;
57531;SDS011;43359;51.296;16.904;2022-08-19T06:30:03;112.05;;;107.13;;
57531;SDS011;43359;51.296;16.904;2022-08-19T06:32:30;115.95;;;110.78;;
57531;SDS011;43359;51.296;16.904;2022-08-19T06:34:56;113.82;;;108.57;;
57531;SDS011;43359;51.296;16.904;2022-08-19T06:37:22;105.63;;;101.03;;
57531;SDS011;43359;51.296;16.904;2022-08-19T06:39:49;98.72;;;93.95;;
57531;SDS011;43359;51.296;16.904;2022-08-19T06:42:15;85.97;;;81.88;;
57531;SDS011;43359;51.296;16.904;2022-08-19T06:44:44;79.60;;;75.70;;
57531;SDS011;43359;51.296;16.904;2022-08-19T06:47:13;82.60;;;78.55;;
57531;SDS011;43359;51.296;16.904;2022-08-19T06:49:39;74.97;;;71.13;;
57531;SDS011;43359;51.296;16.904;2022-08-19T06:52:05;68.50;;;64.75;;
57531;SDS011;43359;51.296;16.904;2022-08-19T06:54:32;69.63;;;66.00;;
57531;SDS011;43359;51.296;16.904;2022-08-19T06:56:58;70.38;;;66.65;;
57531;SDS011;43359;51.296;16.904;2022-08-19T06:59:27;66.57;;;63.00;;
57531;SDS011;43359;51.296;16.904;2022-08-19T07:01:56;63.42;;;59.67;;
57531;SDS011;43359;51.296;16.904;2022-08-19T07:04:25;67.10;;;63.47;;
57531;SDS011;43359;51.296;16.904;2022-08-19T07:06:56;64.22;;;60.47;;
57531;SDS011;43359;51.296;16.904;2022-08-19T07:09:23;69.03;;;65.63;;
57531;SDS011;43359;51.296;16.904;2022-08-19T07:11:50;71.95;;;68.45;;
57531;SDS011;43359;51.296;16.904;2022-08-19T07:14:18;73.88;;;70.25;;
57531;SDS011;43359;51.296;16.904;2022-08-19T07:16:44;74.32;;;70.80;;
57531;SDS011;43359;51.296;16.904;2022-08-19T07:19:11;75.57;;;71.80;;
57531;SDS011;43359;51.296;16.904;2022-08-19T07:21:38;88.38;;;84.38;;
57531;SDS011;43359;51.296;16.904;2022-08-19T07:24:04;92.07;;;87.85;;
57531;SDS011;43359;51.296;16.904;2022-08-19T07:26:33;108.60;;;103.95;;
57531;SDS011;43359;51.296;16.904;2022-08-19T07:29:04;102.40;;;97.90;;
57531;SDS011;43359;51.296;16.904;2022-08-19T07:31:30;118.20;;;112.63;;
57531;SDS011;43359;51.296;16.904;2022-08-19T07:34:02;141.13;;;135.70;;
57531;SDS011;43359;51.296;16.904;2022-08-19T07:36:33;130.32;;;125.20;;
57531;SDS011;43359;51.296;16.904;2022-08-19T07:39:00;171.05;;;164.63;;
57531;SDS011;43359;51.296;16.904;2022-08-19T07:41:27;159.65;;;153.65;;
57531;SDS011;43359;51.296;16.904;2022-08-19T07:43:56;162.85;;;156.18;;
57531;SDS011;43359;51.296;16.904;2022-08-19T07:46:22;179.27;;;172.57;;
57531;SDS011;43359;51.296;16.904;2022-08-19T07:48:49;183.45;;;176.63;;
57531;SDS011;43359;51.296;16.904;2022-08-19T07:51:17;189.00;;;182.20;;
57531;SDS011;43359;51.296;16.904;2022-08-19T07:53:43;184.25;;;177.55;;
57531;SDS011;43359;51.296;16.904;2022-08-19T07:56:11;207.32;;;199.75;;
57531;SDS011;43359;51.296;16.904;2022-08-19T07:58:38;158.93;;;152.68;;
57531;SDS011;43359;51.296;16.904;2022-08-19T08:01:06;177.40;;;170.95;;
57531;SDS011;43359;51.296;16.904;2022-08-19T08:03:32;176.15;;;169.65;;
57531;SDS011;43359;51.296;16.904;2022-08-19T08:06:17;209.95;;;202.45;;
57531;SDS011;43359;51.296;16.904;2022-08-19T08:09:03;245.52;;;236.85;;
57531;SDS011;43359;51.296;16.904;2022-08-19T08:11:49;251.20;;;242.55;;
57531;SDS011;43359;51.296;16.904;2022-08-19T08:14:17;263.40;;;254.27;;
57531;SDS011;43359;51.296;16.904;2022-08-19T08:16:44;248.48;;;240.02;;
57531;SDS011;43359;51.296;16.904;2022-08-19T08:19:10;239.00;;;230.88;;
57531;SDS011;43359;51.296;16.904;2022-08-19T08:21:40;160.38;;;154.45;;
57531;SDS011;43359;51.296;16.904;2022-08-19T08:24:08;178.90;;;172.00;;
57531;SDS011;43359;51.296;16.904;2022-08-19T08:26:34;159.02;;;153.15;;
57531;SDS011;43359;51.296;16.904;2022-08-19T08:29:02;150.70;;;145.18;;
57531;SDS011;43359;51.296;16.904;2022-08-19T08:31:29;154.50;;;148.70;;
57531;SDS011;43359;51.296;16.904;2022-08-19T08:33:55;146.20;;;140.80;;
57531;SDS011;43359;51.296;16.904;2022-08-19T08:36:21;140.02;;;134.68;;
57531;SDS011;43359;51.296;16.904;2022-08-19T08:38:47;146.95;;;141.40;;
57531;SDS011;43359;51.296;16.904;2022-08-19T08:43:58;159.45;;;153.38;;
57531;SDS011;43359;51.296;16.904;2022-08-19T08:46:30;146.32;;;140.93;;
57531;SDS011;43359;51.296;16.904;2022-08-19T08:51:43;141.80;;;136.35;;
57531;SDS011;43359;51.296;16.904;2022-08-19T08:54:10;163.07;;;157.07;;
57531;SDS011;43359;51.296;16.904;2022-08-19T08:56:38;122.03;;;117.28;;
57531;SDS011;43359;51.296;16.904;2022-08-19T08:59:05;147.15;;;141.43;;
57531;SDS011;43359;51.296;16.904;2022-08-19T09:01:35;153.10;;;147.15;;
57531;SDS011;43359;51.296;16.904;2022-08-19T09:04:05;158.63;;;152.70;;
57531;SDS011;43359;51.296;16.904;2022-08-19T09:06:36;146.10;;;140.60;;
57531;SDS011;43359;51.296;16.904;2022-08-19T09:16:40;192.07;;;184.82;;
57531;SDS011;43359;51.296;16.904;2022-08-19T09:19:06;202.27;;;195.20;;
57531;SDS011;43359;51.296;16.904;2022-08-19T09:21:33;197.05;;;189.88;;
57531;SDS011;43359;51.296;16.904;2022-08-19T09:24:00;224.48;;;216.68;;
57531;SDS011;43359;51.296;16.904;2022-08-19T09:26:26;233.13;;;224.73;;
57531;SDS011;43359;51.296;16.904;2022-08-19T09:28:53;227.75;;;219.55;;
57531;SDS011;43359;51.296;16.904;2022-08-19T09:31:24;241.32;;;232.93;;
57531;SDS011;43359;51.296;16.904;2022-08-19T09:33:51;257.35;;;248.25;;
57531;SDS011;43359;51.296;16.904;2022-08-19T09:36:17;173.95;;;167.55;;
57531;SDS011;43359;51.296;16.904;2022-08-19T09:38:44;263.33;;;254.27;;
57531;SDS011;43359;51.296;16.904;2022-08-19T09:41:11;252.60;;;243.90;;
57531;SDS011;43359;51.296;16.904;2022-08-19T09:43:38;206.55;;;199.10;;
57531;SDS011;43359;51.296;16.904;2022-08-19T09:46:05;151.30;;;145.63;;
57531;SDS011;43359;51.296;16.904;2022-08-19T09:48:32;250.88;;;241.65;;
57531;SDS011;43359;51.296;16.904;2022-08-19T09:51:05;211.05;;;203.30;;
57531;SDS011;43359;51.296;16.904;2022-08-19T09:53:32;255.63;;;246.70;;
57531;SDS011;43359;51.296;16.904;2022-08-19T09:55:58;241.43;;;232.75;;
57531;SDS011;43359;51.296;16.904;2022-08-19T09:58:24;261.83;;;252.65;;
57531;SDS011;43359;51.296;16.904;2022-08-19T10:00:53;258.23;;;249.10;;
57531;SDS011;43359;51.296;16.904;2022-08-19T10:03:19;223.35;;;215.10;;
57531;SDS011;43359;51.296;16.904;2022-08-19T10:05:45;275.23;;;265.70;;
57531;SDS011;43359;51.296;16.904;2022-08-19T10:08:19;274.65;;;265.13;;
57531;SDS011;43359;51.296;16.904;2022-08-19T10:10:45;289.33;;;279.50;;
57531;SDS011;43359;51.296;16.904;2022-08-19T10:13:12;282.30;;;272.65;;
57531;SDS011;43359;51.296;16.904;2022-08-19T10:15:38;287.00;;;276.92;;
57531;SDS011;43359;51.296;16.904;2022-08-19T10:18:05;286.45;;;276.27;;
57531;SDS011;43359;51.296;16.904;2022-08-19T10:20:32;273.60;;;263.77;;
57531;SDS011;43359;51.296;16.904;2022-08-19T10:23:00;273.90;;;264.38;;
57531;SDS011;43359;51.296;16.904;2022-08-19T10:25:26;248.32;;;239.73;;
57531;SDS011;43359;51.296;16.904;2022-08-19T10:27:52;308.10;;;297.42;;
57531;SDS011;43359;51.296;16.904;2022-08-19T10:30:19;263.63;;;254.38;;
57531;SDS011;43359;51.296;16.904;2022-08-19T10:32:45;288.42;;;278.52;;
57531;SDS011;43359;51.296;16.904;2022-08-19T10:35:11;315.40;;;304.08;;
57531;SDS011;43359;51.296;16.904;2022-08-19T10:37:37;342.58;;;330.45;;
57531;SDS011;43359;51.296;16.904;2022-08-19T10:40:05;335.23;;;323.52;;
57531;SDS011;43359;51.296;16.904;2022-08-19T10:42:33;276.70;;;266.73;;
57531;SDS011;43359;51.296;16.904;2022-08-19T10:45:00;333.85;;;321.98;;
57531;SDS011;43359;51.296;16.904;2022-08-19T10:47:26;269.65;;;259.92;;
57531;SDS011;43359;51.296;16.904;2022-08-19T10:49:53;308.23;;;297.58;;
57531;SDS011;43359;51.296;16.904;2022-08-19T10:55:08;296.85;;;286.52;;
57531;SDS011;43359;51.296;16.904;2022-08-19T10:57:53;349.70;;;337.27;;
57531;SDS011;43359;51.296;16.904;2022-08-19T11:00:20;357.10;;;344.38;;
57531;SDS011;43359;51.296;16.904;2022-08-19T11:02:46;363.90;;;351.13;;
57531;SDS011;43359;51.296;16.904;2022-08-19T11:05:12;390.30;;;376.02;;
57531;SDS011;43359;51.296;16.904;2022-08-19T11:07:40;364.65;;;351.63;;
57531;SDS011;43359;51.296;16.904;2022-08-19T11:10:08;375.75;;;362.40;;
57531;SDS011;43359;51.296;16.904;2022-08-19T11:12:37;360.73;;;347.45;;
57531;SDS011;43359;51.296;16.904;2022-08-19T11:15:05;367.77;;;354.73;;
57531;SDS011;43359;51.296;16.904;2022-08-19T11:17:32;373.48;;;360.38;;
57531;SDS011;43359;51.296;16.904;2022-08-19T11:19:58;379.48;;;365.40;;
57531;SDS011;43359;51.296;16.904;2022-08-19T11:22:28;362.60;;;349.63;;
57531;SDS011;43359;51.296;16.904;2022-08-19T11:24:54;284.38;;;273.95;;
57531;SDS011;43359;51.296;16.904;2022-08-19T11:27:20;368.63;;;355.48;;
57531;SDS011;43359;51.296;16.904;2022-08-19T11:29:47;196.15;;;189.10;;
57531;SDS011;43359;51.296;16.904;2022-08-19T11:32:13;370.67;;;357.15;;
57531;SDS011;43359;51.296;16.904;2022-08-19T11:34:40;377.40;;;363.65;;
57531;SDS011;43359;51.296;16.904;2022-08-19T11:37:06;367.25;;;353.80;;
57531;SDS011;43359;51.296;16.904;2022-08-19T11:39:34;388.20;;;374.15;;
57531;SDS011;43359;51.296;16.904;2022-08-19T11:42:01;386.05;;;372.15;;
57531;SDS011;43359;51.296;16.904;2022-08-19T11:44:48;360.40;;;347.35;;
57531;SDS011;43359;51.296;16.904;2022-08-19T11:47:14;382.90;;;368.90;;
57531;SDS011;43359;51.296;16.904;2022-08-19T11:49:40;378.63;;;365.05;;
57531;SDS011;43359;51.296;16.904;2022-08-19T11:52:07;395.30;;;381.00;;
57531;SDS011;43359;51.296;16.904;2022-08-19T11:54:34;328.50;;;316.85;;
57531;SDS011;43359;51.296;16.904;2022-08-19T11:57:02;347.27;;;334.98;;
57531;SDS011;43359;51.296;16.904;2022-08-19T11:59:28;390.83;;;376.65;;
57531;SDS011;43359;51.296;16.904;2022-08-19T12:01:54;318.80;;;307.42;;
57531;SDS011;43359;51.296;16.904;2022-08-19T12:04:21;291.67;;;281.25;;
57531;SDS011;43359;51.296;16.904;2022-08-19T12:06:47;221.68;;;213.85;;
57531;SDS011;43359;51.296;16.904;2022-08-19T12:09:15;339.80;;;327.75;;
57531;SDS011;43359;51.296;16.904;2022-08-19T12:11:42;317.95;;;306.80;;
57531;SDS011;43359;51.296;16.904;2022-08-19T12:14:09;345.60;;;333.13;;
57531;SDS011;43359;51.296;16.904;2022-08-19T12:16:36;222.10;;;214.05;;
57531;SDS011;43359;51.296;16.904;2022-08-19T12:19:03;378.08;;;364.52;;
57531;SDS011;43359;51.296;16.904;2022-08-19T12:21:30;281.60;;;271.42;;
57531;SDS011;43359;51.296;16.904;2022-08-19T12:23:57;364.30;;;351.40;;
57531;SDS011;43359;51.296;16.904;2022-08-19T12:26:24;287.17;;;277.00;;
57531;SDS011;43359;51.296;16.904;2022-08-19T12:28:50;370.27;;;357.10;;
57531;SDS011;43359;51.296;16.904;2022-08-19T12:31:16;301.52;;;290.98;;
57531;SDS011;43359;51.296;16.904;2022-08-19T12:33:44;260.70;;;251.45;;
57531;SDS011;43359;51.296;16.904;2022-08-19T12:36:11;316.25;;;305.30;;
57531;SDS011;43359;51.296;16.904;2022-08-19T12:38:37;327.15;;;315.95;;
57531;SDS011;43359;51.296;16.904;2022-08-19T12:41:04;337.35;;;325.38;;
57531;SDS011;43359;51.296;16.904;2022-08-19T12:43:31;255.80;;;246.82;;
57531;SDS011;43359;51.296;16.904;2022-08-19T12:45:57;326.15;;;314.58;;
57531;SDS011;43359;51.296;16.904;2022-08-19T12:48:23;287.35;;;277.42;;
57531;SDS011;43359;51.296;16.904;2022-08-19T12:50:49;337.10;;;325.35;;
57531;SDS011;43359;51.296;16.904;2022-08-19T12:53:15;315.80;;;304.67;;
57531;SDS011;43359;51.296;16.904;2022-08-19T12:55:42;314.02;;;303.05;;
57531;SDS011;43359;51.296;16.904;2022-08-19T12:58:09;232.98;;;224.38;;
57531;SDS011;43359;51.296;16.904;2022-08-19T13:00:35;246.07;;;237.25;;
57531;SDS011;43359;51.296;16.904;2022-08-19T13:03:01;314.88;;;304.00;;
57531;SDS011;43359;51.296;16.904;2022-08-19T13:05:29;254.38;;;245.52;;
57531;SDS011;43359;51.296;16.904;2022-08-19T13:07:56;301.75;;;291.17;;
57531;SDS011;43359;51.296;16.904;2022-08-19T13:10:25;242.30;;;233.63;;
57531;SDS011;43359;51.296;16.904;2022-08-19T13:12:53;307.33;;;296.73;;
57531;SDS011;43359;51.296;16.904;2022-08-19T13:15:19;305.13;;;294.35;;
57531;SDS011;43359;51.296;16.904;2022-08-19T13:17:50;243.60;;;234.90;;
57531;SDS011;43359;51.296;16.904;2022-08-19T13:20:17;256.92;;;247.95;;
57531;SDS011;43359;51.296;16.904;2022-08-19T13:22:46;259.08;;;250.13;;
57531;SDS011;43359;51.296;16.904;2022-08-19T13:25:13;254.38;;;245.23;;
57531;SDS011;43359;51.296;16.904;2022-08-19T13:27:41;317.67;;;306.70;;
57531;SDS011;43359;51.296;16.904;2022-08-19T13:30:08;296.50;;;286.20;;
57531;SDS011;43359;51.296;16.904;2022-08-19T13:32:54;329.17;;;317.75;;
57531;SDS011;43359;51.296;16.904;2022-08-19T13:35:42;325.58;;;314.05;;
57531;SDS011;43359;51.296;16.904;2022-08-19T13:38:09;266.63;;;257.17;;
57531;SDS011;43359;51.296;16.904;2022-08-19T13:40:36;319.38;;;308.15;;
57531;SDS011;43359;51.296;16.904;2022-08-19T13:43:03;310.10;;;299.35;;
57531;SDS011;43359;51.296;16.904;2022-08-19T13:45:30;304.33;;;293.73;;
57531;SDS011;43359;51.296;16.904;2022-08-19T13:48:00;290.08;;;279.95;;
57531;SDS011;43359;51.296;16.904;2022-08-19T13:50:29;311.70;;;300.58;;
57531;SDS011;43359;51.296;16.904;2022-08-19T13:52:56;308.83;;;298.17;;
57531;SDS011;43359;51.296;16.904;2022-08-19T13:55:23;330.88;;;319.40;;
57531;SDS011;43359;51.296;16.904;2022-08-19T13:57:50;328.65;;;317.23;;
57531;SDS011;43359;51.296;16.904;2022-08-19T14:00:16;328.17;;;316.75;;
57531;SDS011;43359;51.296;16.904;2022-08-19T14:02:44;305.98;;;294.85;;
57531;SDS011;43359;51.296;16.904;2022-08-19T14:05:11;344.45;;;332.20;;
57531;SDS011;43359;51.296;16.904;2022-08-19T14:07:38;331.85;;;320.33;;